KFKN/FKN METAR and TAF weather

Enter ICAO airport designator
Station Type Date Time Source
KFKN METAR 2019/04/23 00:35 UTC NOAA

KFKN 230035Z AUTO 00000KT 10SM CLR 15/12 A3010 RMK AO2 T01460120


Station Type Date Time Source
KFKN Decoded METAR 2019/04/23 00:35 UTC NOAA

Franklin / J B Rose, VA, United States (KFKN) 36-42N 076-54W
Apr 22, 2019 - 08:35 PM EDT / 2019.04.23 0035 UTC
Wind: Calm:0
Visibility: 10 mile(s):0
Sky conditions: clear
Temperature: 58.3 F (14.6 C)
Dew Point: 53.6 F (12.0 C)
Relative Humidity: 84%
Pressure (altimeter): 30.1 in. Hg (1019 hPa)
ob: KFKN 230035Z AUTO 00000KT 10SM CLR 15/12 A3010 RMK AO2 T01460120
cycle: 0

Station Type Date Time Source
KFKN TAF UTC NOAA

Error!

Example: see airport list